Time;durP1;ratioP1;P1;durP2;ratioP2;P2;SDS_P1;SDS_P2;PMS_P1;PMS_P2;Temp;Humidity;BMP_temperature;BMP_pressure;BME280_temperature;BME280_humidity;BME280_pressure;Samples;Min_cycle;Max_cycle;Signal;HPM_P1;HPM_P2
2021/03/05 00:00:10;;;;;;;9.35;2.10;;;;;;;5.50;76.21;102520.47;4842643;29;20063;-50
2021/03/05 00:02:37;;;;;;;9.93;2.72;;;;;;;5.49;76.17;102525.13;4842512;29;20091;-54
2021/03/05 00:05:23;;;;;;;6.90;2.22;;;;;;;5.50;76.19;102529.53;4849018;29;20044;-50
2021/03/05 00:07:50;;;;;;;15.30;3.38;;;;;;;5.52;75.84;102524.59;4860650;29;20064;-50
2021/03/05 00:10:43;;;;;;;9.65;2.10;;;;;;;5.51;75.97;102522.94;4853313;29;20133;-51
2021/03/05 00:13:11;;;;;;;10.57;1.90;;;;;;;5.53;76.09;102528.16;4842260;29;20110;-53
2021/03/05 00:15:41;;;;;;;9.95;1.75;;;;;;;5.49;75.27;102529.78;4842550;29;20094;-54
2021/03/05 00:18:08;;;;;;;7.28;1.63;;;;;;;5.47;74.87;102521.00;4842032;29;20069;-52
2021/03/05 00:20:39;;;;;;;5.75;2.40;;;;;;;5.46;74.74;102527.56;4842122;29;20551;-51
2021/03/05 00:23:05;;;;;;;8.25;1.83;;;;;;;5.45;74.84;102521.25;4856759;29;20102;-50
2021/03/05 00:25:32;;;;;;;6.50;1.40;;;;;;;5.46;74.54;102520.16;4842349;29;20118;-52
2021/03/05 00:27:58;;;;;;;10.30;1.77;;;;;;;5.45;74.20;102526.72;4841968;29;20102;-51
2021/03/05 00:30:26;;;;;;;4.18;1.38;;;;;;;5.43;73.98;102528.94;4841910;29;20471;-51
2021/03/05 00:32:54;;;;;;;10.70;1.15;;;;;;;5.42;74.18;102527.28;4841128;29;20522;-52
2021/03/05 00:35:21;;;;;;;7.00;2.17;;;;;;;5.42;74.14;102532.78;4842169;29;20492;-50
2021/03/05 00:37:50;;;;;;;5.30;1.00;;;;;;;5.40;73.93;102532.22;4826120;29;20049;-59
2021/03/05 00:40:17;;;;;;;3.65;0.82;;;;;;;5.39;73.89;102533.31;4840954;29;20046;-50
2021/03/05 00:42:45;;;;;;;6.28;0.95;;;;;;;5.38;73.57;102537.16;4840258;29;20102;-51
2021/03/05 00:45:14;;;;;;;5.45;1.00;;;;;;;5.36;73.25;102527.53;4841790;29;20189;-49
2021/03/05 00:47:41;;;;;;;9.50;1.58;;;;;;;5.35;73.49;102529.44;4841252;29;20114;-47
2021/03/05 00:50:11;;;;;;;13.00;2.42;;;;;;;5.35;73.15;102532.19;4842078;29;20106;-51
2021/03/05 00:52:40;;;;;;;3.05;1.23;;;;;;;5.35;73.39;102537.69;4840073;29;20557;-52
2021/03/05 00:55:10;;;;;;;5.47;1.38;;;;;;;5.34;73.44;102530.56;4840849;29;20057;-50
2021/03/05 00:57:40;;;;;;;5.38;1.50;;;;;;;5.37;73.84;102538.25;4840261;29;20062;-52
2021/03/05 01:00:14;;;;;;;5.70;2.70;;;;;;;5.37;73.40;102535.50;4840401;29;20061;-49
2021/03/05 01:02:40;;;;;;;5.28;1.48;;;;;;;5.36;73.31;102535.75;4841143;29;20160;-48
2021/03/05 01:05:08;;;;;;;1.88;1.02;;;;;;;5.37;73.81;102527.28;4844987;29;20536;-49
2021/03/05 01:07:34;;;;;;;10.50;1.50;;;;;;;5.38;73.88;102539.06;4859506;29;20114;-49
2021/03/05 01:10:02;;;;;;;3.35;1.42;;;;;;;5.36;73.61;102528.34;4850276;29;20054;-49
2021/03/05 01:12:30;;;;;;;5.60;0.85;;;;;;;5.35;73.86;102534.94;4849431;29;20042;-49
2021/03/05 01:14:57;;;;;;;9.45;2.55;;;;;;;5.36;73.89;102539.34;4840655;29;20078;-49
2021/03/05 01:17:24;;;;;;;10.95;1.55;;;;;;;5.38;73.96;102545.38;4840409;29;20054;-51
2021/03/05 01:19:51;;;;;;;7.70;2.10;;;;;;;5.37;73.82;102546.50;4840770;29;20081;-49
2021/03/05 01:22:17;;;;;;;4.22;1.17;;;;;;;5.38;73.92;102542.63;4839870;29;20505;-51
2021/03/05 01:24:43;;;;;;;8.45;1.85;;;;;;;5.38;73.85;102544.56;4841034;29;20045;-53
2021/03/05 01:27:10;;;;;;;11.43;1.30;;;;;;;5.40;73.79;102550.63;4840979;29;20092;-51
2021/03/05 01:29:39;;;;;;;6.50;1.15;;;;;;;5.37;73.85;102542.91;4854842;29;20133;-49
2021/03/05 01:32:07;;;;;;;15.10;2.83;;;;;;;5.35;73.62;102540.44;4841173;29;20122;-52
2021/03/05 01:34:34;;;;;;;5.68;2.53;;;;;;;5.35;73.64;102534.09;4841235;29;20454;-49
2021/03/05 01:37:01;;;;;;;7.53;1.02;;;;;;;5.32;73.62;102532.72;4840752;29;20654;-49
2021/03/05 01:39:27;;;;;;;6.50;2.72;;;;;;;5.30;73.41;102534.91;4854717;29;20077;-51
2021/03/05 01:41:55;;;;;;;1.83;0.90;;;;;;;5.33;73.65;102539.88;4825165;29;20086;-50
2021/03/05 01:44:21;;;;;;;2.80;0.90;;;;;;;5.32;73.45;102551.94;4809666;29;20061;-53
2021/03/05 01:46:48;;;;;;;4.90;0.90;;;;;;;5.32;73.00;102549.19;4840934;29;20102;-52
2021/03/05 01:49:14;;;;;;;6.18;0.75;;;;;;;5.32;72.99;102549.19;4841780;29;20046;-51
2021/03/05 01:51:41;;;;;;;6.05;1.20;;;;;;;5.33;72.87;102555.50;4840937;29;20049;-50
2021/03/05 01:54:07;;;;;;;4.65;1.00;;;;;;;5.34;73.23;102558.00;4824074;29;20049;-49
2021/03/05 01:56:44;;;;;;;8.93;1.23;;;;;;;5.35;73.21;102559.66;4840777;29;20091;-50
2021/03/05 01:59:13;;;;;;;11.13;1.58;;;;;;;5.35;73.16;102547.84;4832230;29;20055;-49
2021/03/05 02:01:40;;;;;;;5.68;1.48;;;;;;;5.37;73.13;102553.91;4822896;29;20046;-49
2021/03/05 02:04:09;;;;;;;13.70;3.50;;;;;;;5.33;73.09;102553.59;4822491;29;20054;-50
2021/03/05 02:06:54;;;;;;;4.00;1.02;;;;;;;5.34;73.44;102552.53;4839452;29;20045;-52
2021/03/05 02:09:20;;;;;;;10.85;1.17;;;;;;;5.32;73.31;102543.69;4836338;29;20046;-51
2021/03/05 02:11:46;;;;;;;39.35;3.28;;;;;;;5.30;73.20;102545.06;4835551;29;20501;-48
2021/03/05 02:14:13;;;;;;;7.13;1.05;;;;;;;5.30;72.97;102551.38;4822354;29;20488;-54
2021/03/05 02:16:52;;;;;;;5.50;1.05;;;;;;;5.29;73.10;102549.75;4825250;29;20077;-55
2021/03/05 02:19:40;;;;;;;4.00;1.00;;;;;;;5.26;72.84;102550.28;4841002;29;20121;-50
2021/03/05 02:22:31;;;;;;;5.53;1.80;;;;;;;5.26;72.76;102555.78;4854953;29;20140;-48
2021/03/05 02:25:34;;;;;;;8.20;1.08;;;;;;;5.25;72.85;102543.13;4840901;29;20561;-46
2021/03/05 02:28:31;;;;;;;8.43;2.45;;;;;;;5.23;72.76;102544.47;4824701;29;20084;-46
2021/03/05 02:31:04;;;;;;;3.53;0.90;;;;;;;5.23;72.84;102550.81;4822680;29;20046;-49
2021/03/05 02:33:36;;;;;;;;;;;;;;;5.22;72.75;102542.81;4822443;29;20050;-48
2021/03/05 02:36:07;;;;;;;7.22;1.75;;;;;;;5.21;72.93;102541.19;4822682;29;19975;-49
2021/03/05 02:38:36;;;;;;;6.45;1.00;;;;;;;5.21;72.74;102558.50;4822521;29;20434;-47
2021/03/05 02:41:04;;;;;;;9.48;2.95;;;;;;;5.23;72.96;102549.97;4822572;29;20050;-49
2021/03/05 02:43:32;;;;;;;6.43;1.35;;;;;;;5.19;72.68;102546.91;4821585;29;20086;-50
2021/03/05 02:46:03;;;;;;;4.13;0.77;;;;;;;5.20;73.12;102545.84;4822538;29;20103;-48
2021/03/05 02:48:40;;;;;;;6.78;1.13;;;;;;;5.18;72.52;102542.53;4839362;29;20046;-45
2021/03/05 02:51:09;;;;;;;4.53;0.82;;;;;;;5.18;72.44;102547.19;4840622;29;20052;-48
2021/03/05 02:53:37;;;;;;;5.18;1.00;;;;;;;5.13;72.38;102547.16;4802656;29;20047;-46
2021/03/05 02:56:09;;;;;;;8.70;0.85;;;;;;;5.12;72.27;102546.34;4804105;29;20135;-50
2021/03/05 02:58:38;;;;;;;4.47;0.90;;;;;;;5.14;72.36;102552.38;4834015;29;20055;-46
2021/03/05 03:01:08;;;;;;;6.75;0.90;;;;;;;5.13;71.98;102550.75;4820010;29;20134;-46
2021/03/05 03:03:37;;;;;;;6.15;1.15;;;;;;;5.09;71.89;102546.88;4821305;29;20405;-48
2021/03/05 03:06:09;;;;;;;5.00;0.82;;;;;;;5.10;71.72;102548.53;4833238;29;20138;-45
2021/03/05 03:08:37;;;;;;;15.73;2.15;;;;;;;5.13;71.80;102548.00;4840438;29;20053;-50
2021/03/05 03:11:05;;;;;;;6.20;0.90;;;;;;;5.14;71.68;102560.63;4840390;29;20076;-49
2021/03/05 03:13:36;;;;;;;3.15;1.15;;;;;;;5.11;71.81;102552.91;4843179;29;20138;-50
2021/03/05 03:16:08;;;;;;;8.25;1.60;;;;;;;5.10;71.33;102547.69;4843851;29;20074;-47
2021/03/05 03:18:36;;;;;;;3.83;0.88;;;;;;;5.11;71.84;102554.84;4829578;29;20047;-46
2021/03/05 03:21:04;;;;;;;3.55;0.88;;;;;;;5.08;71.65;102550.72;4825216;29;20584;-48
2021/03/05 03:23:33;;;;;;;5.63;0.88;;;;;;;5.09;71.62;102555.09;4828044;29;20142;-51
2021/03/05 03:26:02;;;;;;;10.18;1.45;;;;;;;5.09;71.41;102560.59;4824796;29;20066;-50
2021/03/05 03:28:28;;;;;;;4.25;0.93;;;;;;;5.11;71.47;102558.41;4825052;29;20087;-49
2021/03/05 03:30:55;;;;;;;6.57;1.15;;;;;;;5.09;71.88;102562.50;4825136;29;20531;-46
2021/03/05 03:33:21;;;;;;;12.85;1.33;;;;;;;5.09;71.65;102563.34;4826947;29;20126;-47
2021/03/05 03:35:49;;;;;;;7.72;1.40;;;;;;;5.07;71.58;102562.78;4824416;29;20039;-52
2021/03/05 03:38:17;;;;;;;13.55;1.30;;;;;;;5.04;71.82;102574.28;4824782;29;20565;-52
2021/03/05 03:40:45;;;;;;;6.68;1.20;;;;;;;5.00;71.48;102573.16;4825781;29;20054;-48
2021/03/05 03:43:12;;;;;;;6.22;1.30;;;;;;;5.03;71.44;102572.63;4838804;29;20578;-49
2021/03/05 03:45:41;;;;;;;6.70;1.00;;;;;;;5.01;71.84;102568.47;4824502;29;20058;-50
2021/03/05 03:48:09;;;;;;;4.72;1.05;;;;;;;5.03;71.74;102580.03;4824879;29;20047;-47
2021/03/05 03:51:07;;;;;;;8.15;1.38;;;;;;;5.03;71.42;102569.88;4827232;29;20054;-49
2021/03/05 03:53:37;;;;;;;3.88;0.98;;;;;;;5.00;71.69;102567.69;4805979;29;20063;-46
2021/03/05 03:56:08;;;;;;;5.80;1.00;;;;;;;5.02;71.49;102573.72;4806857;29;20046;-49
2021/03/05 03:58:37;;;;;;;9.02;1.40;;;;;;;5.06;71.92;102580.31;4813079;29;20054;-47
2021/03/05 04:01:09;;;;;;;18.65;2.08;;;;;;;5.03;72.08;102578.09;4830934;29;20053;-52
2021/03/05 04:03:38;;;;;;;9.40;1.30;;;;;;;5.01;71.48;102579.47;4826014;29;20054;-52
2021/03/05 04:06:09;;;;;;;4.22;1.30;;;;;;;5.03;71.78;102582.78;4853539;29;20503;-48
2021/03/05 04:08:39;;;;;;;5.97;0.97;;;;;;;5.04;72.07;102585.25;4854675;29;20062;-49
2021/03/05 04:11:08;;;;;;;9.18;1.30;;;;;;;5.05;71.81;102592.41;4848884;29;20053;-48
2021/03/05 04:13:37;;;;;;;8.32;1.35;;;;;;;5.01;71.76;102595.94;4842369;29;20070;-48
2021/03/05 04:16:05;;;;;;;8.93;1.15;;;;;;;4.98;71.69;102589.03;4842918;29;20050;-48
2021/03/05 04:18:34;;;;;;;6.32;1.38;;;;;;;5.00;71.64;102595.13;4842198;29;20049;-49
2021/03/05 04:21:12;;;;;;;3.42;0.70;;;;;;;4.99;71.05;102592.63;4842193;29;20042;-49
2021/03/05 04:23:39;;;;;;;6.47;1.17;;;;;;;4.99;71.35;102593.47;4841677;29;20561;-49
2021/03/05 04:26:06;;;;;;;12.70;0.75;;;;;;;4.98;70.98;102591.78;4842175;29;20403;-49
2021/03/05 04:28:33;;;;;;;4.80;1.08;;;;;;;4.99;70.99;102595.38;4841858;29;20049;-49
2021/03/05 04:30:59;;;;;;;7.22;1.15;;;;;;;5.02;70.92;102598.44;4842254;29;20053;-49
2021/03/05 04:33:27;;;;;;;8.13;2.15;;;;;;;5.01;70.88;102596.75;4842445;29;20053;-47
2021/03/05 04:35:54;;;;;;;5.40;0.95;;;;;;;4.98;70.69;102613.75;4842789;29;20049;-51
2021/03/05 04:38:21;;;;;;;5.82;0.85;;;;;;;4.99;70.56;102612.66;4842363;29;20078;-52
2021/03/05 04:40:48;;;;;;;6.70;0.93;;;;;;;5.00;70.30;102617.09;4841285;29;20048;-50
2021/03/05 04:43:18;;;;;;;4.70;0.90;;;;;;;4.99;70.25;102614.59;4841956;29;20046;-48
2021/03/05 04:45:44;;;;;;;2.85;0.93;;;;;;;4.98;70.26;102621.19;4842519;29;20042;-46
2021/03/05 04:48:11;;;;;;;5.53;0.47;;;;;;;5.00;70.52;102619.00;4842228;29;20054;-47
2021/03/05 04:50:37;;;;;;;8.65;0.95;;;;;;;5.02;70.42;102622.31;4841622;29;20106;-48
2021/03/05 04:53:05;;;;;;;11.07;1.65;;;;;;;4.99;69.99;102631.06;4841311;29;20050;-51
2021/03/05 04:55:32;;;;;;;6.25;0.75;;;;;;;4.99;70.02;102636.53;4840651;29;20489;-49
2021/03/05 04:57:58;;;;;;;7.15;1.92;;;;;;;4.96;70.26;102631.56;4841625;29;20045;-50
2021/03/05 05:00:25;;;;;;;4.97;2.03;;;;;;;4.93;70.07;102633.75;4841500;29;20470;-47
2021/03/05 05:02:51;;;;;;;9.85;1.15;;;;;;;4.94;70.37;102642.81;4841568;29;20046;-51
2021/03/05 05:05:18;;;;;;;5.38;1.00;;;;;;;4.92;70.09;102640.31;4846679;29;20056;-49
2021/03/05 05:07:44;;;;;;;6.47;1.33;;;;;;;4.93;70.23;102649.38;4859989;29;20049;-49
2021/03/05 05:10:11;;;;;;;4.93;0.70;;;;;;;4.94;69.93;102651.06;4853550;29;20054;-46
2021/03/05 05:12:38;;;;;;;7.63;1.55;;;;;;;4.89;70.23;102656.50;4840587;29;20128;-49
2021/03/05 05:15:06;;;;;;;10.02;1.55;;;;;;;4.87;70.20;102645.78;4840545;29;20374;-47
2021/03/05 05:17:33;;;;;;;6.47;0.93;;;;;;;4.87;70.33;102650.47;4841299;29;20476;-50
2021/03/05 05:19:59;;;;;;;5.82;1.13;;;;;;;4.84;70.68;102656.47;4841496;29;20125;-50
2021/03/05 05:22:27;;;;;;;5.30;1.40;;;;;;;4.83;70.56;102663.88;4840590;29;20053;-50
2021/03/05 05:24:54;;;;;;;7.75;0.90;;;;;;;4.84;70.64;102657.25;4841591;29;20062;-50
2021/03/05 05:27:20;;;;;;;2.85;1.08;;;;;;;4.83;70.68;102661.13;4840931;29;20417;-46
2021/03/05 05:29:46;;;;;;;6.03;1.15;;;;;;;4.82;70.86;102666.84;4854989;29;20421;-48
2021/03/05 05:32:14;;;;;;;6.60;1.35;;;;;;;4.77;70.97;102661.31;4840882;29;20492;-47
2021/03/05 05:34:40;;;;;;;4.60;1.08;;;;;;;4.75;71.22;102666.25;4840913;29;20065;-54
2021/03/05 05:37:08;;;;;;;3.78;1.30;;;;;;;4.72;70.67;102669.50;4825232;29;20073;-46
2021/03/05 05:39:40;;;;;;;9.13;1.25;;;;;;;4.71;70.94;102670.59;4854626;29;20503;-48
2021/03/05 05:42:07;;;;;;;11.43;0.90;;;;;;;4.71;70.85;102676.09;4840394;29;20409;-49
2021/03/05 05:44:34;;;;;;;4.75;1.10;;;;;;;4.68;70.88;102671.13;4824558;29;20111;-50
2021/03/05 05:47:02;;;;;;;6.30;1.00;;;;;;;4.70;70.85;102674.44;4841142;29;20149;-52
2021/03/05 05:49:35;;;;;;;7.53;1.15;;;;;;;4.70;71.20;102675.25;4840945;29;20074;-49
2021/03/05 05:52:03;;;;;;;3.30;0.90;;;;;;;4.69;70.66;102667.28;4840550;29;20090;-49
2021/03/05 05:54:31;;;;;;;6.60;1.30;;;;;;;4.69;71.07;102684.56;4841195;29;20054;-50
2021/03/05 05:56:59;;;;;;;3.55;0.77;;;;;;;4.70;70.96;102677.16;4840424;29;20393;-51
2021/03/05 05:59:27;;;;;;;4.40;0.88;;;;;;;4.70;70.57;102669.78;4840450;29;20066;-45
2021/03/05 06:01:55;;;;;;;7.25;1.70;;;;;;;4.70;70.65;102674.44;4840709;29;20046;-47
2021/03/05 06:04:23;;;;;;;8.65;2.50;;;;;;;4.70;70.42;102677.16;4840802;29;20572;-49
2021/03/05 06:06:51;;;;;;;6.60;0.95;;;;;;;4.72;70.83;102681.31;4854142;29;20077;-49
2021/03/05 06:09:18;;;;;;;10.52;1.83;;;;;;;4.74;70.39;102689.25;4829943;29;20110;-47
2021/03/05 06:11:44;;;;;;;6.85;1.23;;;;;;;4.76;70.36;102689.84;4854047;29;20512;-50
2021/03/05 06:14:12;;;;;;;7.00;1.13;;;;;;;4.76;70.32;102687.13;4841438;29;20145;-45
2021/03/05 06:16:51;;;;;;;3.97;0.85;;;;;;;4.78;70.44;102690.41;4840185;29;20065;-51
2021/03/05 06:19:19;;;;;;;7.95;2.00;;;;;;;4.76;70.49;102689.84;4840835;29;20053;-49
2021/03/05 06:21:46;;;;;;;3.00;1.10;;;;;;;4.76;70.39;102689.84;4840499;29;20545;-48
2021/03/05 06:24:13;;;;;;;5.20;1.48;;;;;;;4.77;70.24;102688.75;4840603;29;20088;-49
2021/03/05 06:26:54;;;;;;;7.30;1.25;;;;;;;4.71;69.33;102696.09;4854513;29;20070;-50
2021/03/05 06:29:38;;;;;;;6.77;1.70;;;;;;;4.75;69.73;102696.41;4840911;29;20484;-50
2021/03/05 06:32:07;;;;;;;4.32;0.90;;;;;;;4.72;69.90;102699.69;4840060;29;20081;-46
2021/03/05 06:34:45;;;;;;;7.68;0.93;;;;;;;4.70;69.37;102704.59;4840588;29;20046;-47
2021/03/05 06:37:12;;;;;;;5.63;1.50;;;;;;;4.69;69.67;102705.69;4839867;29;20669;-50
2021/03/05 06:39:39;;;;;;;2.55;0.70;;;;;;;4.69;69.34;102697.44;4840905;29;20078;-47
2021/03/05 06:42:08;;;;;;;4.18;1.23;;;;;;;4.68;69.25;102709.53;4840248;29;20129;-47
2021/03/05 06:44:39;;;;;;;7.30;1.05;;;;;;;4.71;69.80;102717.25;4840741;29;20079;-47
2021/03/05 06:47:13;;;;;;;4.20;0.82;;;;;;;4.66;69.11;102725.44;4842832;29;20162;-48
2021/03/05 06:49:41;;;;;;;7.82;1.02;;;;;;;4.66;69.52;102719.94;4843657;29;20042;-49
2021/03/05 06:52:09;;;;;;;2.40;0.70;;;;;;;4.68;69.53;102731.47;4843813;29;20050;-49
2021/03/05 06:54:38;;;;;;;4.60;0.70;;;;;;;4.71;69.29;102740.00;4844338;29;20102;-48
2021/03/05 06:57:06;;;;;;;8.15;1.98;;;;;;;4.70;69.51;102734.78;4827079;29;20062;-48
2021/03/05 06:59:41;;;;;;;5.60;0.70;;;;;;;4.67;69.03;102738.03;4843530;29;20106;-50
2021/03/05 07:02:15;;;;;;;5.60;1.00;;;;;;;4.68;69.02;102746.03;4843785;29;20077;-49
2021/03/05 07:04:42;;;;;;;6.20;1.00;;;;;;;4.70;69.14;102748.50;4843704;29;20106;-46
2021/03/05 07:07:11;;;;;;;4.63;1.30;;;;;;;4.69;69.09;102749.56;4853585;29;20823;-47
2021/03/05 07:09:38;;;;;;;8.60;1.10;;;;;;;4.70;68.84;102748.50;4845885;29;20050;-48
2021/03/05 07:12:11;;;;;;;2.80;0.90;;;;;;;4.72;68.80;102749.06;4855203;29;20085;-47
2021/03/05 07:14:39;;;;;;;3.72;0.98;;;;;;;4.74;69.09;102755.94;4843132;29;20046;-49
2021/03/05 07:17:06;;;;;;;8.38;1.17;;;;;;;4.75;69.15;102751.31;4843232;29;21170;-47
2021/03/05 07:19:35;;;;;;;5.00;1.17;;;;;;;4.76;68.76;102750.22;4857733;29;20133;-50
2021/03/05 07:22:03;;;;;;;4.10;1.33;;;;;;;4.77;69.02;102755.44;4843228;29;20496;-48
2021/03/05 07:24:31;;;;;;;7.10;2.92;;;;;;;4.77;68.73;102749.13;4843685;29;20049;-50
2021/03/05 07:27:02;;;;;;;5.18;1.20;;;;;;;4.79;68.70;102752.47;4843236;29;20046;-50
2021/03/05 07:29:32;;;;;;;5.45;0.80;;;;;;;4.79;68.89;102755.19;4843597;29;20098;-48
2021/03/05 07:32:08;;;;;;;3.72;1.15;;;;;;;4.77;68.57;102749.13;4843104;29;20102;-50
2021/03/05 07:34:57;;;;;;;2.85;0.52;;;;;;;4.76;68.50;102756.53;4843017;29;20057;-46
2021/03/05 07:37:32;;;;;;;4.85;0.88;;;;;;;4.75;68.70;102754.03;4843474;29;20083;-46
2021/03/05 07:40:12;;;;;;;7.53;1.08;;;;;;;4.77;68.47;102746.38;4856927;29;20081;-46
2021/03/05 07:42:39;;;;;;;3.50;0.98;;;;;;;4.80;68.83;102759.59;4842633;29;20408;-49
2021/03/05 07:45:10;;;;;;;10.07;1.13;;;;;;;4.82;68.32;102751.91;4843637;29;20453;-48
2021/03/05 07:47:38;;;;;;;3.22;1.05;;;;;;;4.77;68.56;102755.44;4843224;29;20520;-45
2021/03/05 07:50:07;;;;;;;5.10;1.05;;;;;;;4.73;68.31;102756.22;4842698;29;20050;-49
2021/03/05 07:52:35;;;;;;;5.00;0.70;;;;;;;4.73;67.98;102761.72;4842072;29;20077;-47
2021/03/05 07:55:02;;;;;;;1.98;0.70;;;;;;;4.76;68.44;102755.72;4856701;29;20046;-47
2021/03/05 07:57:28;;;;;;;2.63;0.85;;;;;;;4.80;67.90;102770.56;4842202;29;20065;-50
2021/03/05 07:59:58;;;;;;;7.00;1.00;;;;;;;4.80;68.18;102759.59;4842247;29;20066;-47
2021/03/05 08:03:00;;;;;;;5.93;1.10;;;;;;;4.83;67.85;102767.31;4842744;29;20416;-50
2021/03/05 08:05:41;;;;;;;7.40;1.20;;;;;;;4.82;67.92;102766.47;4828913;29;20140;-49
2021/03/05 08:08:13;;;;;;;4.60;1.65;;;;;;;4.83;67.77;102768.13;4842512;29;20053;-48
2021/03/05 08:10:46;;;;;;;7.35;1.13;;;;;;;4.85;68.34;102767.88;4836350;29;20105;-51
2021/03/05 08:13:51;;;;;;;5.63;0.82;;;;;;;4.84;67.20;102771.72;4844498;29;20048;-50
2021/03/05 08:16:30;;;;;;;8.85;1.38;;;;;;;4.85;67.92;102767.88;4860701;29;20220;-49
2021/03/05 08:19:06;;;;;;;9.20;2.45;;;;;;;4.87;68.05;102765.72;4842415;29;20589;-49
2021/03/05 08:21:53;;;;;;;5.72;2.03;;;;;;;4.89;67.20;102777.25;4842270;29;20102;-47
2021/03/05 08:24:21;;;;;;;6.53;0.95;;;;;;;4.89;67.77;102775.34;4842356;29;20106;-48
2021/03/05 08:27:31;;;;;;;1.85;0.93;;;;;;;4.91;67.92;102777.81;4842337;29;20082;-48
2021/03/05 08:30:27;;;;;;;4.10;1.10;;;;;;;4.91;67.71;102770.44;4821641;29;20511;-48
2021/03/05 08:33:01;;;;;;;3.53;0.50;;;;;;;4.91;67.47;102773.16;4838201;29;20932;-50
2021/03/05 08:35:28;;;;;;;5.28;0.90;;;;;;;4.95;67.71;102773.47;4839450;29;20509;-52
2021/03/05 08:37:58;;;;;;;3.13;0.85;;;;;;;4.97;66.90;102781.47;4839892;29;20057;-48
2021/03/05 08:40:32;;;;;;;5.85;1.20;;;;;;;5.01;67.54;102791.66;4838690;29;20050;-50
2021/03/05 08:43:10;;;;;;;5.97;0.93;;;;;;;4.97;66.44;102784.19;4840340;29;20053;-46
2021/03/05 08:45:41;;;;;;;3.17;1.75;;;;;;;4.99;66.84;102787.50;4840078;29;20050;-50
2021/03/05 08:48:08;;;;;;;5.18;1.15;;;;;;;4.97;66.87;102796.00;4838707;29;20132;-49
2021/03/05 08:50:37;;;;;;;6.55;1.13;;;;;;;5.00;67.00;102795.50;4839840;29;20050;-51
2021/03/05 08:53:06;;;;;;;6.28;0.90;;;;;;;5.04;66.87;102796.63;4840920;29;20046;-51
2021/03/05 08:55:37;;;;;;;3.55;0.98;;;;;;;5.05;66.61;102809.28;4833244;29;20053;-49
2021/03/05 08:58:07;;;;;;;4.68;0.80;;;;;;;5.08;66.17;102811.50;4840691;29;20103;-51
2021/03/05 09:00:35;;;;;;;2.45;1.27;;;;;;;5.12;66.42;102807.16;4848128;29;20081;-48
2021/03/05 09:03:22;;;;;;;5.57;0.73;;;;;;;5.12;65.03;102804.41;4838738;29;20057;-49
2021/03/05 09:05:50;;;;;;;6.15;0.88;;;;;;;5.13;65.21;102802.50;4845078;29;20046;-52
2021/03/05 09:08:22;;;;;;;5.97;1.58;;;;;;;5.17;64.81;102812.69;4839087;29;20053;-47
2021/03/05 09:10:54;;;;;;;4.50;1.40;;;;;;;5.23;64.89;102811.66;4859639;29;20457;-51
2021/03/05 09:13:24;;;;;;;;;;;;;;;5.22;63.75;102812.75;4839407;29;20054;-48
2021/03/05 09:15:56;;;;;;;8.50;1.85;;;;;;;5.25;64.93;102817.72;4839036;29;20027;-49
2021/03/05 09:18:26;;;;;;;;;;;;;;;5.23;62.72;102816.31;4854329;29;20053;-49
2021/03/05 09:20:56;;;;;;;5.10;1.42;;;;;;;5.28;65.13;102825.44;4857439;29;19928;-48
2021/03/05 09:23:37;;;;;;;3.03;1.73;;;;;;;5.30;63.39;102817.78;4849861;29;20045;-50
2021/03/05 09:26:07;;;;;;;8.20;1.83;;;;;;;5.34;63.91;102818.94;4839472;29;20065;-48
2021/03/05 09:28:48;;;;;;;4.78;1.02;;;;;;;5.36;61.86;102815.91;4838641;29;20497;-54
2021/03/05 09:31:24;;;;;;;7.65;1.00;;;;;;;5.41;64.15;102825.03;4838536;29;20054;-52
2021/03/05 09:33:51;;;;;;;2.03;1.00;;;;;;;5.46;63.98;102816.84;4839282;29;20720;-53
2021/03/05 09:36:23;;;;;;;7.63;1.27;;;;;;;5.45;63.86;102830.84;4821575;29;20095;-49
2021/03/05 09:38:56;;;;;;;13.57;0.90;;;;;;;5.47;63.17;102821.25;4822490;29;20140;-53
2021/03/05 09:41:27;;;;;;;7.47;1.27;;;;;;;5.47;63.33;102832.22;4838828;29;20089;-53
2021/03/05 09:44:00;;;;;;;3.53;1.10;;;;;;;5.53;63.56;102820.19;4838678;29;20045;-50
2021/03/05 09:46:29;;;;;;;3.30;1.75;;;;;;;5.62;63.56;102827.94;4839033;29;20081;-50
2021/03/05 09:48:57;;;;;;;8.20;1.13;;;;;;;5.63;63.05;102821.38;4844046;29;20176;-52
2021/03/05 09:51:25;;;;;;;5.63;1.80;;;;;;;5.63;62.74;102818.63;4856989;29;20057;-48
2021/03/05 09:53:52;;;;;;;2.83;1.63;;;;;;;5.66;63.00;102820.84;4837104;29;20098;-50
2021/03/05 09:56:23;;;;;;;3.30;0.90;;;;;;;5.68;62.87;102821.41;4847454;29;20052;-51
2021/03/05 09:58:52;;;;;;;5.97;1.63;;;;;;;5.75;62.10;102822.00;4838578;29;20064;-53
2021/03/05 10:01:18;;;;;;;1.60;0.88;;;;;;;5.77;62.68;102828.91;4839016;29;20698;-54
2021/03/05 10:03:51;;;;;;;3.60;1.05;;;;;;;5.80;62.02;102819.34;4838172;29;20042;-53
2021/03/05 10:06:18;;;;;;;6.85;1.55;;;;;;;5.87;62.79;102830.97;4823119;29;20141;-50
2021/03/05 10:08:44;;;;;;;8.88;1.27;;;;;;;5.93;62.20;102825.22;4838193;29;20077;-50
2021/03/05 10:11:12;;;;;;;5.10;1.30;;;;;;;5.94;62.32;102828.81;4860355;29;20129;-51
2021/03/05 10:13:47;;;;;;;7.80;2.22;;;;;;;5.96;60.96;102838.44;4852945;29;20084;-49
2021/03/05 10:16:18;;;;;;;6.88;1.67;;;;;;;6.04;61.74;102842.63;4836949;29;20134;-50
2021/03/05 10:18:48;;;;;;;5.83;1.17;;;;;;;6.10;61.70;102841.56;4838744;29;20520;-51
2021/03/05 10:21:17;;;;;;;1.63;0.95;;;;;;;6.12;61.48;102840.22;4840484;29;20094;-50
2021/03/05 10:23:44;;;;;;;6.00;0.98;;;;;;;6.19;61.75;102851.00;4841206;29;20132;-53
2021/03/05 10:26:15;;;;;;;5.95;1.30;;;;;;;6.21;60.47;102854.31;4842471;29;20155;-49
2021/03/05 10:28:41;;;;;;;4.13;1.45;;;;;;;6.23;61.57;102852.13;4839986;29;20057;-51
2021/03/05 10:31:08;;;;;;;10.48;1.73;;;;;;;6.28;61.48;102856.81;4842312;29;20058;-51
2021/03/05 10:33:38;;;;;;;7.57;1.33;;;;;;;6.34;61.06;102864.84;4841588;29;20096;-52
2021/03/05 10:36:06;;;;;;;7.55;1.70;;;;;;;6.45;61.13;102869.31;4842367;29;20133;-52
2021/03/05 10:38:34;;;;;;;5.93;1.20;;;;;;;6.44;60.58;102875.91;4842050;29;20078;-54
2021/03/05 10:41:01;;;;;;;7.05;1.88;;;;;;;6.50;60.80;102874.84;4838976;29;20054;-50
2021/03/05 10:43:35;;;;;;;4.18;1.40;;;;;;;6.53;60.28;102868.00;4839618;29;20050;-50
2021/03/05 10:46:03;;;;;;;5.53;1.67;;;;;;;6.50;60.40;102858.34;4841096;29;20521;-51
2021/03/05 10:48:30;;;;;;;5.80;1.67;;;;;;;6.55;60.42;102866.63;4840862;29;20049;-52
2021/03/05 10:50:56;;;;;;;9.93;2.13;;;;;;;6.54;59.88;102875.97;4840853;29;20106;-53
2021/03/05 10:53:23;;;;;;;3.72;1.38;;;;;;;6.58;59.67;102879.84;4841189;29;20114;-54
2021/03/05 10:55:50;;;;;;;7.15;1.98;;;;;;;6.58;59.64;102877.09;4843917;29;20049;-50
2021/03/05 10:58:18;;;;;;;4.93;1.65;;;;;;;6.60;59.70;102868.56;4848922;29;20106;-49
2021/03/05 11:00:46;;;;;;;7.07;1.80;;;;;;;6.56;59.17;102873.81;4837964;29;20053;-52
2021/03/05 11:03:14;;;;;;;6.47;1.40;;;;;;;6.59;59.23;102867.72;4840578;29;20117;-51
2021/03/05 11:05:41;;;;;;;7.28;1.90;;;;;;;6.67;59.76;102881.00;4848466;29;20053;-49
2021/03/05 11:08:07;;;;;;;12.20;2.58;;;;;;;6.77;59.37;102871.13;4857039;29;20566;-50
2021/03/05 11:10:34;;;;;;;5.45;1.70;;;;;;;6.75;58.61;102883.25;4855400;29;20477;-52
2021/03/05 11:13:02;;;;;;;6.05;1.40;;;;;;;6.80;58.48;102881.63;4840363;29;20491;-51
2021/03/05 11:15:29;;;;;;;6.05;1.27;;;;;;;6.83;58.77;102886.59;4839454;29;20050;-51
2021/03/05 11:17:57;;;;;;;4.55;1.50;;;;;;;6.87;58.13;102884.94;4839199;29;20144;-50
2021/03/05 11:20:23;;;;;;;2.85;1.40;;;;;;;6.93;58.49;102881.97;4840927;29;20050;-50
2021/03/05 11:22:53;;;;;;;5.85;1.50;;;;;;;6.94;58.37;102891.03;4839622;29;20050;-52
2021/03/05 11:25:20;;;;;;;6.90;1.70;;;;;;;6.98;58.70;102892.16;4839624;29;20153;-52
2021/03/05 11:27:47;;;;;;;5.53;1.05;;;;;;;6.99;58.48;102885.56;4829800;29;20694;-52
2021/03/05 11:30:14;;;;;;;7.25;1.40;;;;;;;7.03;58.22;102889.44;4839122;29;20070;-50
2021/03/05 11:32:41;;;;;;;3.22;1.08;;;;;;;6.97;58.13;102890.50;4852767;29;20073;-52
2021/03/05 11:35:08;;;;;;;4.45;1.50;;;;;;;6.94;58.16;102886.34;4858327;29;20045;-54
2021/03/05 11:37:34;;;;;;;5.60;1.20;;;;;;;6.91;58.05;102888.84;4857350;29;20502;-50
2021/03/05 11:40:03;;;;;;;4.82;1.65;;;;;;;6.94;58.09;102888.28;4842138;29;20226;-52
2021/03/05 11:42:29;;;;;;;8.45;1.40;;;;;;;6.94;58.17;102891.03;4858202;29;20461;-49
2021/03/05 11:44:55;;;;;;;3.85;1.60;;;;;;;6.97;57.98;102884.97;4857433;29;20077;-51
2021/03/05 11:47:22;;;;;;;5.22;2.05;;;;;;;6.96;58.11;102888.84;4858591;29;20700;-54